createdAt,value
2018-10-18T00:01:17.005Z,61.90
2018-10-18T00:03:46.076Z,60.90
2018-10-18T00:06:14.893Z,61.55
2018-10-18T00:08:43.661Z,61.37
2018-10-18T00:11:13.296Z,61.48
2018-10-18T00:13:42.394Z,60.78
2018-10-18T00:16:11.766Z,61.32
2018-10-18T00:18:40.039Z,61.31
2018-10-18T00:21:09.775Z,61.17
2018-10-18T00:23:37.400Z,61.39
2018-10-18T00:26:06.311Z,61.13
2018-10-18T00:28:34.612Z,60.54
2018-10-18T00:31:02.915Z,60.52
2018-10-18T00:33:30.561Z,60.49
2018-10-18T00:35:58.253Z,60.58
2018-10-18T00:38:25.841Z,61.12
2018-10-18T00:40:53.490Z,61.16
2018-10-18T00:43:21.157Z,60.89
2018-10-18T00:45:48.773Z,61.09
2018-10-18T00:48:16.447Z,61.01
2018-10-18T00:50:44.045Z,61.09
2018-10-18T00:53:11.712Z,60.30
2018-10-18T00:55:39.361Z,60.20
2018-10-18T00:58:07.028Z,60.66
2018-10-18T01:00:34.922Z,60.14
2018-10-18T01:03:02.537Z,60.05
2018-10-18T01:05:30.138Z,60.63
2018-10-18T01:07:57.896Z,59.93
2018-10-18T01:10:25.595Z,60.76
2018-10-18T01:12:53.170Z,60.18
2018-10-18T01:15:20.807Z,60.86
2018-10-18T01:17:48.481Z,60.23
2018-10-18T01:20:16.111Z,60.84
2018-10-18T01:22:43.789Z,60.22
2018-10-18T01:25:11.361Z,60.26
2018-10-18T01:27:38.969Z,61.06
2018-10-18T01:30:06.737Z,60.99
2018-10-18T01:32:34.424Z,60.97
2018-10-18T01:35:02.056Z,60.46
2018-10-18T01:37:29.631Z,60.46
2018-10-18T01:39:57.221Z,61.02
2018-10-18T01:42:24.855Z,60.45
2018-10-18T01:44:52.457Z,60.99
2018-10-18T01:47:20.031Z,61.10
2018-10-18T01:49:47.624Z,60.50
2018-10-18T01:52:15.225Z,60.54
2018-10-18T01:54:42.926Z,60.96
2018-10-18T01:57:10.543Z,61.00
2018-10-18T01:59:38.199Z,60.51
2018-10-18T02:02:05.969Z,61.05
2018-10-18T02:04:33.516Z,60.88
2018-10-18T02:07:01.248Z,61.21
2018-10-18T02:09:28.831Z,61.38
2018-10-18T02:11:56.491Z,61.52
2018-10-18T02:14:24.090Z,60.95
2018-10-18T02:16:51.768Z,61.39
2018-10-18T02:19:19.550Z,60.93
2018-10-18T02:21:47.076Z,61.51
2018-10-18T02:24:14.808Z,61.00
2018-10-18T02:26:42.318Z,61.42
2018-10-18T02:29:09.971Z,61.05
2018-10-18T02:31:37.644Z,61.09
2018-10-18T02:34:05.277Z,61.42
2018-10-18T02:36:32.889Z,61.28
2018-10-18T02:39:00.563Z,62.04
2018-10-18T02:41:28.219Z,62.20
2018-10-18T02:43:55.777Z,61.54
2018-10-18T02:46:23.361Z,62.17
2018-10-18T02:48:50.989Z,61.77
2018-10-18T02:51:18.573Z,62.32
2018-10-18T02:53:46.218Z,61.84
2018-10-18T02:56:13.787Z,61.78
2018-10-18T02:58:41.363Z,62.54
2018-10-18T03:01:09.029Z,62.63
2018-10-18T03:03:36.609Z,62.62
2018-10-18T03:06:04.397Z,62.47
2018-10-18T03:08:31.980Z,62.21
2018-10-18T03:10:59.650Z,62.69
2018-10-18T03:13:27.274Z,61.99
2018-10-18T03:15:54.932Z,62.22
2018-10-18T03:18:22.515Z,62.75
2018-10-18T03:20:50.205Z,62.14
2018-10-18T03:23:17.835Z,62.15
2018-10-18T03:25:45.487Z,62.69
2018-10-18T03:28:13.059Z,62.19
2018-10-18T03:30:40.713Z,62.51
2018-10-18T03:33:08.312Z,62.65
2018-10-18T03:35:35.909Z,62.47
2018-10-18T03:38:03.595Z,62.53
2018-10-18T03:40:31.232Z,61.65
2018-10-18T03:42:58.859Z,62.52
2018-10-18T03:45:26.671Z,61.75
2018-10-18T03:47:54.493Z,61.67
2018-10-18T03:50:22.063Z,61.43
2018-10-18T03:52:49.705Z,62.06
2018-10-18T03:55:17.304Z,62.01
2018-10-18T03:57:44.952Z,62.08
2018-10-18T04:00:12.559Z,61.48
2018-10-18T04:02:40.196Z,62.05
2018-10-18T04:05:08.720Z,61.39
2018-10-18T04:07:36.292Z,61.37
2018-10-18T04:10:03.951Z,61.69
2018-10-18T04:12:31.556Z,61.28
2018-10-18T04:14:59.385Z,61.43
2018-10-18T04:17:27.013Z,61.37
2018-10-18T04:19:54.682Z,61.93
2018-10-18T04:22:22.479Z,61.82
2018-10-18T04:24:50.428Z,61.54
2018-10-18T04:27:18.160Z,61.27
2018-10-18T04:29:45.831Z,61.68
2018-10-18T04:32:13.541Z,60.99
2018-10-18T04:34:41.443Z,60.88
2018-10-18T04:37:09.102Z,61.57
2018-10-18T04:39:36.756Z,61.22
2018-10-18T04:42:04.384Z,61.45
2018-10-18T04:44:32.084Z,61.40
2018-10-18T04:46:59.732Z,61.46
2018-10-18T04:49:27.389Z,61.23
2018-10-18T04:51:55.044Z,61.17
2018-10-18T04:54:22.700Z,60.54
2018-10-18T04:56:50.347Z,60.81
2018-10-18T04:59:17.954Z,61.09
2018-10-18T05:01:45.655Z,61.77
2018-10-18T05:04:13.300Z,61.84
2018-10-18T05:06:40.929Z,61.91
2018-10-18T05:09:08.808Z,61.23
2018-10-18T05:11:36.372Z,61.66
2018-10-18T05:14:04.098Z,61.62
2018-10-18T05:16:31.720Z,61.67
2018-10-18T05:18:59.488Z,60.88
2018-10-18T05:21:27.073Z,60.85
2018-10-18T05:23:55.724Z,60.76
2018-10-18T05:26:23.464Z,60.72
2018-10-18T05:28:51.134Z,60.81
2018-10-18T05:31:18.829Z,60.58
2018-10-18T05:33:46.465Z,61.23
2018-10-18T05:36:14.088Z,61.40
2018-10-18T05:38:41.705Z,60.67
2018-10-18T05:41:09.332Z,61.14
2018-10-18T05:43:36.943Z,61.02
2018-10-18T05:46:04.538Z,60.71
2018-10-18T05:48:32.104Z,60.67
2018-10-18T05:50:59.812Z,60.46
2018-10-18T05:53:27.468Z,60.53
2018-10-18T05:55:55.085Z,61.11
2018-10-18T05:58:22.714Z,60.33
2018-10-18T06:00:50.635Z,60.38
2018-10-18T06:03:18.324Z,60.31
2018-10-18T06:05:45.966Z,60.67
2018-10-18T06:08:13.591Z,60.22
2018-10-18T06:10:52.558Z,60.38
2018-10-18T06:13:20.268Z,60.54
2018-10-18T06:15:47.926Z,60.40
2018-10-18T06:18:15.592Z,59.96
2018-10-18T06:20:43.272Z,60.58
2018-10-18T06:23:10.931Z,59.61
2018-10-18T06:25:38.658Z,59.75
2018-10-18T06:28:06.327Z,60.14
2018-10-18T06:30:33.962Z,59.68
2018-10-18T06:33:01.695Z,59.65
2018-10-18T06:35:29.328Z,60.22
2018-10-18T06:37:56.996Z,60.27
2018-10-18T06:40:24.586Z,60.86
2018-10-18T06:42:52.281Z,60.25
2018-10-18T06:45:19.919Z,60.79
2018-10-18T06:47:47.787Z,61.37
2018-10-18T06:50:22.088Z,60.07
2018-10-18T06:52:49.731Z,60.41
2018-10-18T06:55:17.399Z,60.23
2018-10-18T06:57:45.360Z,60.52
2018-10-18T07:00:14.906Z,60.49
2018-10-18T07:02:43.148Z,59.82
2018-10-18T07:05:12.071Z,59.76
2018-10-18T07:07:39.776Z,59.39
2018-10-18T07:10:07.774Z,60.33
2018-10-18T07:12:36.087Z,59.75
2018-10-18T07:15:03.823Z,59.68
2018-10-18T07:17:31.600Z,60.29
2018-10-18T07:19:59.232Z,59.78
2018-10-18T07:22:26.964Z,59.85
2018-10-18T07:24:54.599Z,59.66
2018-10-18T07:27:22.297Z,59.52
2018-10-18T07:29:49.912Z,60.13
2018-10-18T07:32:17.594Z,60.00
2018-10-18T07:34:45.308Z,59.99
2018-10-18T07:37:12.926Z,60.17
2018-10-18T07:39:40.651Z,59.54
2018-10-18T07:42:08.302Z,59.67
2018-10-18T07:44:35.945Z,60.19
2018-10-18T07:47:03.722Z,59.82
2018-10-18T07:49:31.360Z,59.60
2018-10-18T07:51:59.021Z,59.79
2018-10-18T07:54:26.692Z,59.82
2018-10-18T07:56:54.593Z,59.70
2018-10-18T07:59:22.222Z,59.43
2018-10-18T08:01:49.885Z,59.34
2018-10-18T08:04:17.608Z,59.50
2018-10-18T08:06:45.253Z,59.44
2018-10-18T08:09:13.992Z,59.79
2018-10-18T08:11:41.653Z,59.22
2018-10-18T08:14:09.881Z,59.94
2018-10-18T08:16:37.637Z,59.95
2018-10-18T08:19:05.684Z,59.21
2018-10-18T08:21:33.329Z,59.26
2018-10-18T08:24:00.963Z,59.31
2018-10-18T08:26:28.567Z,59.93
2018-10-18T08:28:56.212Z,59.30
2018-10-18T08:31:24.007Z,59.33
2018-10-18T08:33:51.580Z,59.41
2018-10-18T08:36:19.247Z,59.50
2018-10-18T08:38:46.881Z,59.61
2018-10-18T08:41:14.806Z,60.14
2018-10-18T08:43:42.480Z,60.03
2018-10-18T08:46:10.129Z,60.11
2018-10-18T08:48:37.792Z,59.41
2018-10-18T08:51:05.561Z,59.41
2018-10-18T08:53:33.228Z,59.69
2018-10-18T08:56:00.893Z,59.82
2018-10-18T08:58:28.504Z,59.82
2018-10-18T09:00:56.157Z,59.85
2018-10-18T09:03:23.842Z,59.73
2018-10-18T09:05:51.525Z,59.64
2018-10-18T09:08:19.164Z,59.45
2018-10-18T09:10:46.890Z,59.70
2018-10-18T09:13:14.610Z,59.45
2018-10-18T09:15:42.268Z,59.21
2018-10-18T09:18:09.877Z,59.54
2018-10-18T09:20:37.519Z,58.87
2018-10-18T09:23:05.385Z,59.52
2018-10-18T09:25:33.042Z,59.65
2018-10-18T09:28:00.676Z,59.59
2018-10-18T09:30:28.386Z,59.19
2018-10-18T09:32:56.066Z,59.41
2018-10-18T09:35:23.804Z,58.91
2018-10-18T09:37:51.505Z,58.88
2018-10-18T09:40:19.120Z,59.38
2018-10-18T09:42:46.776Z,58.59
2018-10-18T09:45:14.436Z,59.19
2018-10-18T09:47:42.105Z,58.51
2018-10-18T09:50:11.013Z,58.43
2018-10-18T09:52:38.832Z,58.77
2018-10-18T09:55:07.808Z,59.06
2018-10-18T09:57:35.476Z,59.13
2018-10-18T10:00:03.404Z,59.13
2018-10-18T10:02:36.185Z,58.79
2018-10-18T10:05:03.953Z,59.07
2018-10-18T10:07:31.590Z,59.26
2018-10-18T10:09:59.271Z,59.59
2018-10-18T10:12:26.912Z,58.60
2018-10-18T10:14:54.635Z,59.02
2018-10-18T10:17:22.319Z,59.09
2018-10-18T10:19:49.895Z,58.28
2018-10-18T10:22:17.557Z,58.35
2018-10-18T10:24:45.275Z,58.79
2018-10-18T10:27:12.878Z,58.68
2018-10-18T10:29:40.492Z,58.58
2018-10-18T10:32:08.136Z,58.47
2018-10-18T10:34:35.821Z,58.72
2018-10-18T10:37:03.529Z,58.08
2018-10-18T10:39:31.238Z,58.05
2018-10-18T10:41:58.893Z,58.51
2018-10-18T10:44:26.759Z,57.85
2018-10-18T10:46:54.410Z,57.90
2018-10-18T10:49:22.075Z,58.50
2018-10-18T10:51:49.783Z,57.87
2018-10-18T10:54:18.355Z,57.81
2018-10-18T10:56:46.010Z,58.38
2018-10-18T10:59:16.459Z,57.70
2018-10-18T11:01:44.092Z,57.59
2018-10-18T11:04:11.736Z,58.13
2018-10-18T11:06:39.371Z,57.21
2018-10-18T11:09:09.283Z,57.34
2018-10-18T11:11:36.850Z,57.37
2018-10-18T11:14:04.587Z,57.54
2018-10-18T11:16:32.220Z,58.32
2018-10-18T11:18:59.920Z,58.06
2018-10-18T11:21:27.684Z,57.93
2018-10-18T11:23:55.359Z,58.18
2018-10-18T11:26:23.081Z,57.64
2018-10-18T11:28:50.628Z,57.54
2018-10-18T11:31:18.298Z,57.96
2018-10-18T11:33:45.958Z,57.60
2018-10-18T11:36:13.760Z,58.45
2018-10-18T11:38:41.312Z,58.52
2018-10-18T11:41:09.043Z,58.43
2018-10-18T11:43:36.701Z,58.14
2018-10-18T11:46:04.908Z,57.97
2018-10-18T11:48:32.574Z,58.31
2018-10-18T11:51:00.207Z,57.60
2018-10-18T11:53:27.902Z,58.16
2018-10-18T11:55:55.592Z,57.81
2018-10-18T11:58:23.226Z,58.05
2018-10-18T12:00:50.931Z,57.54
2018-10-18T12:03:18.571Z,57.27
2018-10-18T12:05:46.241Z,57.92
2018-10-18T12:08:13.992Z,57.66
2018-10-18T12:10:41.556Z,57.58
2018-10-18T12:13:09.306Z,57.93
2018-10-18T12:15:36.900Z,57.88
2018-10-18T12:18:04.613Z,57.24
2018-10-18T12:20:32.339Z,57.26
2018-10-18T12:23:00.050Z,57.34
2018-10-18T12:25:27.857Z,57.10
2018-10-18T12:27:57.010Z,56.81
2018-10-18T12:30:24.675Z,56.73
2018-10-18T12:32:52.392Z,56.54
2018-10-18T12:35:20.065Z,56.45
2018-10-18T12:37:47.740Z,56.29
2018-10-18T12:40:15.464Z,56.94
2018-10-18T12:42:44.360Z,56.87
2018-10-18T12:45:12.612Z,56.75
2018-10-18T12:47:40.320Z,56.10
2018-10-18T12:50:08.066Z,56.67
2018-10-18T12:52:35.689Z,55.95
2018-10-18T12:55:04.588Z,55.77
2018-10-18T12:57:32.352Z,55.77
2018-10-18T13:00:00.239Z,55.80
2018-10-18T13:02:27.913Z,55.90
2018-10-18T13:04:55.580Z,55.55
2018-10-18T13:07:23.285Z,55.53
2018-10-18T13:09:50.933Z,56.13
2018-10-18T13:12:18.825Z,56.00
2018-10-18T13:14:46.334Z,55.20
2018-10-18T13:17:13.975Z,55.94
2018-10-18T13:19:41.643Z,55.20
2018-10-18T13:22:09.310Z,55.05
2018-10-18T13:24:36.936Z,55.15
2018-10-18T13:27:04.679Z,55.35
2018-10-18T13:29:32.372Z,55.25
2018-10-18T13:32:00.152Z,55.24
2018-10-18T13:34:27.948Z,54.72
2018-10-18T13:36:55.705Z,54.91
2018-10-18T13:39:23.455Z,54.51
2018-10-18T13:41:51.182Z,55.02
2018-10-18T13:44:19.093Z,54.32
2018-10-18T13:46:46.651Z,54.81
2018-10-18T13:49:14.301Z,53.89
2018-10-18T13:51:41.925Z,54.36
2018-10-18T13:54:09.762Z,53.17
2018-10-18T13:56:37.387Z,53.53
2018-10-18T13:59:09.621Z,53.21
2018-10-18T14:01:37.283Z,52.58
2018-10-18T14:04:05.020Z,51.82
2018-10-18T14:06:32.739Z,52.29
2018-10-18T14:09:00.404Z,51.66
2018-10-18T14:11:28.040Z,51.18
2018-10-18T14:13:55.650Z,51.21
2018-10-18T14:16:23.297Z,51.49
2018-10-18T14:18:50.952Z,50.61
2018-10-18T14:21:18.731Z,51.02
2018-10-18T14:23:46.338Z,51.23
2018-10-18T14:26:14.043Z,50.35
2018-10-18T14:28:41.632Z,50.44
2018-10-18T14:31:09.269Z,50.63
2018-10-18T14:33:36.877Z,50.21
2018-10-18T14:36:05.667Z,50.20
2018-10-18T14:38:33.435Z,49.84
2018-10-18T14:41:01.048Z,49.58
2018-10-18T14:43:28.845Z,48.81
2018-10-18T14:45:56.506Z,48.69
2018-10-18T14:48:24.125Z,48.46
2018-10-18T14:50:51.911Z,47.89
2018-10-18T14:53:19.608Z,48.07
2018-10-18T14:55:47.224Z,48.02
2018-10-18T14:58:14.904Z,47.24
2018-10-18T15:00:42.556Z,47.27
2018-10-18T15:03:10.161Z,47.54
2018-10-18T15:05:37.755Z,47.30
2018-10-18T15:08:05.440Z,47.25
2018-10-18T15:10:33.071Z,48.09
2018-10-18T15:13:00.740Z,48.64
2018-10-18T15:15:28.362Z,49.26
2018-10-18T15:17:56.020Z,49.79
2018-10-18T15:20:23.695Z,49.06
2018-10-18T15:22:51.338Z,48.42
2018-10-18T15:25:19.147Z,47.43
2018-10-18T15:27:46.918Z,46.85
2018-10-18T15:30:14.444Z,48.21
2018-10-18T15:32:42.046Z,47.75
2018-10-18T15:35:10.555Z,48.49
2018-10-18T15:37:38.765Z,48.21
2018-10-18T15:40:06.877Z,49.27
2018-10-18T15:42:34.570Z,49.17
2018-10-18T15:45:02.303Z,50.05
2018-10-18T15:47:29.922Z,50.27
2018-10-18T15:49:57.541Z,50.37
2018-10-18T15:52:25.141Z,50.11
2018-10-18T15:54:52.887Z,49.43
2018-10-18T15:57:20.562Z,48.92
2018-10-18T15:59:48.207Z,49.64
2018-10-18T16:02:15.907Z,49.88
2018-10-18T16:04:43.541Z,49.87
2018-10-18T16:07:11.272Z,50.28
2018-10-18T16:09:38.895Z,50.57
2018-10-18T16:12:06.597Z,50.82
2018-10-18T16:14:34.319Z,51.08
2018-10-18T16:17:02.028Z,51.08
2018-10-18T16:19:29.662Z,50.88
2018-10-18T16:21:57.364Z,51.62
2018-10-18T16:24:25.120Z,51.58
2018-10-18T16:26:52.700Z,50.94
2018-10-18T16:29:20.389Z,51.70
2018-10-18T16:31:47.989Z,52.00
2018-10-18T16:34:15.842Z,51.70
2018-10-18T16:36:43.461Z,51.99
2018-10-18T16:39:12.598Z,52.36
2018-10-18T16:41:40.597Z,52.28
2018-10-18T16:44:08.193Z,52.42
2018-10-18T16:46:35.874Z,51.94
2018-10-18T16:49:03.520Z,52.13
2018-10-18T16:51:31.132Z,52.70
2018-10-18T16:53:58.997Z,52.06
2018-10-18T16:56:26.590Z,52.85
2018-10-18T16:58:54.270Z,52.27
2018-10-18T17:01:21.950Z,53.06
2018-10-18T17:03:49.685Z,52.64
2018-10-18T17:06:17.398Z,52.45
2018-10-18T17:08:45.114Z,52.55
2018-10-18T17:11:12.862Z,53.06
2018-10-18T17:13:40.544Z,53.35
2018-10-18T17:16:08.268Z,53.12
2018-10-18T17:18:35.877Z,53.43
2018-10-18T17:21:03.586Z,54.41
2018-10-18T17:23:31.305Z,54.44
2018-10-18T17:25:58.905Z,54.56
2018-10-18T17:28:26.583Z,54.15
2018-10-18T17:30:54.193Z,54.20
2018-10-18T17:33:22.008Z,54.97
2018-10-18T17:35:49.812Z,54.59
2018-10-18T17:38:17.584Z,54.79
2018-10-18T17:40:45.324Z,54.09
2018-10-18T17:43:12.859Z,54.12
2018-10-18T17:45:40.533Z,54.78
2018-10-18T17:48:08.267Z,54.21
2018-10-18T17:50:35.933Z,54.97
2018-10-18T17:53:03.667Z,55.14
2018-10-18T17:55:31.309Z,54.78
2018-10-18T17:57:58.962Z,54.57
2018-10-18T18:00:26.703Z,55.33
2018-10-18T18:02:54.296Z,55.36
2018-10-18T18:05:22.212Z,54.76
2018-10-18T18:07:49.954Z,55.27
2018-10-18T18:10:17.895Z,55.50
2018-10-18T18:12:45.940Z,55.82
2018-10-18T18:15:13.626Z,55.08
2018-10-18T18:17:41.293Z,55.61
2018-10-18T18:20:10.329Z,54.70
2018-10-18T18:22:38.127Z,54.85
2018-10-18T18:25:07.380Z,54.56
2018-10-18T18:27:35.057Z,55.14
2018-10-18T18:30:02.904Z,54.56
2018-10-18T18:32:30.528Z,55.33
2018-10-18T18:34:58.116Z,55.19
2018-10-18T18:37:25.751Z,55.29
2018-10-18T18:39:53.500Z,54.83
2018-10-18T18:42:21.087Z,54.87
2018-10-18T18:44:48.887Z,55.26
2018-10-18T18:47:16.510Z,55.03
2018-10-18T18:49:44.141Z,54.89
2018-10-18T18:52:11.875Z,54.98
2018-10-18T18:54:39.478Z,55.57
2018-10-18T18:57:13.698Z,55.24
2018-10-18T18:59:41.256Z,54.72
2018-10-18T19:02:08.889Z,55.61
2018-10-18T19:04:36.486Z,54.77
2018-10-18T19:07:04.256Z,55.39
2018-10-18T19:09:31.894Z,55.57
2018-10-18T19:11:59.531Z,55.84
2018-10-18T19:14:27.162Z,55.31
2018-10-18T19:16:54.775Z,55.39
2018-10-18T19:19:22.429Z,55.28
2018-10-18T19:21:50.033Z,55.00
2018-10-18T19:24:17.692Z,55.57
2018-10-18T19:26:45.304Z,55.49
2018-10-18T19:29:12.919Z,55.34
2018-10-18T19:31:40.554Z,54.83
2018-10-18T19:34:08.190Z,55.41
2018-10-18T19:36:35.848Z,54.86
2018-10-18T19:39:04.452Z,55.40
2018-10-18T19:41:32.159Z,55.60
2018-10-18T19:43:59.764Z,55.11
2018-10-18T19:46:27.460Z,55.62
2018-10-18T19:48:55.119Z,55.02
2018-10-18T19:51:22.771Z,55.76
2018-10-18T19:53:50.431Z,55.16
2018-10-18T19:56:18.079Z,55.23
2018-10-18T19:58:45.689Z,55.68
2018-10-18T20:01:13.307Z,55.90
2018-10-18T20:03:40.968Z,55.67
2018-10-18T20:06:08.618Z,55.46
2018-10-18T20:08:36.328Z,56.37
2018-10-18T20:11:03.992Z,55.62
2018-10-18T20:13:31.577Z,56.15
2018-10-18T20:15:59.153Z,55.95
2018-10-18T20:18:26.859Z,55.36
2018-10-18T20:20:54.530Z,55.90
2018-10-18T20:23:22.197Z,55.83
2018-10-18T20:25:49.957Z,55.22
2018-10-18T20:28:17.442Z,54.99
2018-10-18T20:30:45.039Z,55.00
2018-10-18T20:33:12.654Z,55.04
2018-10-18T20:35:40.287Z,55.00
2018-10-18T20:38:07.941Z,55.67
2018-10-18T20:40:35.515Z,55.12
2018-10-18T20:43:03.175Z,55.43
2018-10-18T20:45:32.704Z,55.64
2018-10-18T20:48:00.365Z,55.76
2018-10-18T20:50:27.923Z,56.48
2018-10-18T20:52:55.661Z,56.44
2018-10-18T20:55:23.292Z,56.60
2018-10-18T20:57:50.890Z,56.58
2018-10-18T21:00:18.555Z,56.70
2018-10-18T21:02:46.107Z,56.22
2018-10-18T21:05:13.832Z,56.35
2018-10-18T21:07:41.410Z,56.94
2018-10-18T21:10:09.008Z,56.48
2018-10-18T21:12:36.613Z,56.53
2018-10-18T21:15:04.241Z,57.34
2018-10-18T21:17:31.840Z,57.21
2018-10-18T21:19:59.465Z,56.47
2018-10-18T21:22:27.140Z,57.46
2018-10-18T21:24:54.821Z,56.64
2018-10-18T21:27:22.400Z,56.52
2018-10-18T21:29:50.043Z,56.96
2018-10-18T21:32:17.636Z,56.31
2018-10-18T21:34:45.418Z,56.19
2018-10-18T21:37:12.964Z,56.13
2018-10-18T21:39:40.676Z,56.64
2018-10-18T21:42:08.332Z,57.12
2018-10-18T21:44:37.013Z,56.33
2018-10-18T21:47:04.851Z,56.27
2018-10-18T21:49:32.615Z,56.82
2018-10-18T21:52:00.213Z,56.73
2018-10-18T21:54:27.957Z,56.88
2018-10-18T21:56:55.805Z,57.13
2018-10-18T21:59:23.691Z,56.67
2018-10-18T22:01:51.313Z,56.29
2018-10-18T22:04:18.883Z,56.85
2018-10-18T22:06:47.870Z,56.63
2018-10-18T22:09:15.905Z,56.37
2018-10-18T22:11:43.540Z,55.88
2018-10-18T22:14:11.136Z,56.27
2018-10-18T22:16:39.533Z,55.92
2018-10-18T22:19:08.252Z,55.77
2018-10-18T22:21:36.526Z,55.39
2018-10-18T22:24:04.468Z,56.14
2018-10-18T22:26:32.154Z,55.45
2018-10-18T22:28:59.801Z,55.90
2018-10-18T22:31:27.702Z,56.00
2018-10-18T22:33:55.448Z,55.84
2018-10-18T22:36:23.589Z,56.30
2018-10-18T22:38:51.230Z,57.00
2018-10-18T22:41:18.930Z,56.16
2018-10-18T22:43:46.532Z,56.01
2018-10-18T22:46:14.165Z,56.27
2018-10-18T22:48:41.837Z,56.31
2018-10-18T22:51:09.578Z,56.47
2018-10-18T22:53:37.109Z,56.44
2018-10-18T22:56:04.772Z,56.48
2018-10-18T22:58:32.383Z,56.39
2018-10-18T23:00:59.968Z,56.84
2018-10-18T23:03:27.665Z,56.74
2018-10-18T23:05:55.235Z,56.52
2018-10-18T23:08:22.836Z,56.61
2018-10-18T23:10:50.437Z,56.59
2018-10-18T23:13:18.150Z,56.91
2018-10-18T23:15:45.759Z,56.91
2018-10-18T23:18:13.345Z,56.69
2018-10-18T23:20:41.322Z,56.74
2018-10-18T23:23:09.554Z,56.72
2018-10-18T23:25:37.212Z,56.48
2018-10-18T23:28:04.828Z,56.23
2018-10-18T23:30:39.076Z,56.80
2018-10-18T23:33:06.742Z,56.50
2018-10-18T23:35:34.520Z,56.68
2018-10-18T23:38:02.184Z,56.59
2018-10-18T23:40:29.824Z,56.36
2018-10-18T23:42:57.462Z,56.13
2018-10-18T23:45:25.136Z,55.91
2018-10-18T23:47:53.365Z,55.99
2018-10-18T23:50:21.510Z,55.82
2018-10-18T23:52:49.169Z,55.95
2018-10-18T23:55:16.809Z,55.75
2018-10-18T23:57:44.487Z,55.59
